sensor_id;sensor_type;location;lat;lon;timestamp;temperature;humidity
16315;DHT22;8266;52.150;4.768;2023-10-08T00:01:49;22.20;99.90
16315;DHT22;8266;52.150;4.768;2023-10-08T00:04:17;22.10;99.90
16315;DHT22;8266;52.150;4.768;2023-10-08T00:06:45;22.10;99.90
16315;DHT22;8266;52.150;4.768;2023-10-08T00:09:12;22.10;99.90
16315;DHT22;8266;52.150;4.768;2023-10-08T00:11:41;22.10;99.90
16315;DHT22;8266;52.150;4.768;2023-10-08T00:14:08;22.00;99.90
16315;DHT22;8266;52.150;4.768;2023-10-08T00:16:37;22.00;99.90
16315;DHT22;8266;52.150;4.768;2023-10-08T00:19:06;22.00;99.90
16315;DHT22;8266;52.150;4.768;2023-10-08T00:21:40;22.00;99.90
16315;DHT22;8266;52.150;4.768;2023-10-08T00:24:10;22.00;99.90
16315;DHT22;8266;52.150;4.768;2023-10-08T00:26:37;22.00;99.90
16315;DHT22;8266;52.150;4.768;2023-10-08T00:29:08;21.90;99.90
16315;DHT22;8266;52.150;4.768;2023-10-08T00:31:43;21.90;99.90
16315;DHT22;8266;52.150;4.768;2023-10-08T00:34:12;21.90;99.90
16315;DHT22;8266;52.150;4.768;2023-10-08T00:36:40;21.90;99.90
16315;DHT22;8266;52.150;4.768;2023-10-08T00:39:08;21.90;99.90
16315;DHT22;8266;52.150;4.768;2023-10-08T00:41:40;21.90;99.90
16315;DHT22;8266;52.150;4.768;2023-10-08T00:44:08;21.90;99.90
16315;DHT22;8266;52.150;4.768;2023-10-08T00:46:38;21.90;99.90
16315;DHT22;8266;52.150;4.768;2023-10-08T00:49:09;21.90;99.90
16315;DHT22;8266;52.150;4.768;2023-10-08T00:51:51;21.90;99.90
16315;DHT22;8266;52.150;4.768;2023-10-08T00:54:31;21.90;99.90
16315;DHT22;8266;52.150;4.768;2023-10-08T00:57:00;21.90;99.90
16315;DHT22;8266;52.150;4.768;2023-10-08T00:59:32;21.90;99.90
16315;DHT22;8266;52.150;4.768;2023-10-08T01:02:07;21.90;99.90
16315;DHT22;8266;52.150;4.768;2023-10-08T01:04:42;21.90;99.90
16315;DHT22;8266;52.150;4.768;2023-10-08T01:07:12;21.90;99.90
16315;DHT22;8266;52.150;4.768;2023-10-08T01:09:41;21.90;99.90
16315;DHT22;8266;52.150;4.768;2023-10-08T01:12:14;21.80;99.90
16315;DHT22;8266;52.150;4.768;2023-10-08T01:14:45;21.80;99.90
16315;DHT22;8266;52.150;4.768;2023-10-08T01:17:20;21.80;99.90
16315;DHT22;8266;52.150;4.768;2023-10-08T01:19:52;21.80;99.90
16315;DHT22;8266;52.150;4.768;2023-10-08T01:22:25;21.80;99.90
16315;DHT22;8266;52.150;4.768;2023-10-08T01:24:55;21.80;99.90
16315;DHT22;8266;52.150;4.768;2023-10-08T01:27:23;21.80;99.90
16315;DHT22;8266;52.150;4.768;2023-10-08T01:29:51;21.80;99.90
16315;DHT22;8266;52.150;4.768;2023-10-08T01:32:19;21.80;99.90
16315;DHT22;8266;52.150;4.768;2023-10-08T01:34:48;21.70;99.90
16315;DHT22;8266;52.150;4.768;2023-10-08T01:37:16;21.70;99.90
16315;DHT22;8266;52.150;4.768;2023-10-08T01:39:45;21.70;99.90
16315;DHT22;8266;52.150;4.768;2023-10-08T01:42:15;21.70;99.90
16315;DHT22;8266;52.150;4.768;2023-10-08T01:44:44;21.70;99.90
16315;DHT22;8266;52.150;4.768;2023-10-08T01:47:13;21.70;99.90
16315;DHT22;8266;52.150;4.768;2023-10-08T01:49:41;21.70;99.90
16315;DHT22;8266;52.150;4.768;2023-10-08T01:52:10;21.70;99.90
16315;DHT22;8266;52.150;4.768;2023-10-08T01:54:44;21.60;99.90
16315;DHT22;8266;52.150;4.768;2023-10-08T01:57:11;21.60;99.90
16315;DHT22;8266;52.150;4.768;2023-10-08T01:59:38;21.60;99.90
16315;DHT22;8266;52.150;4.768;2023-10-08T02:02:05;21.60;99.90
16315;DHT22;8266;52.150;4.768;2023-10-08T02:04:32;21.50;99.90
16315;DHT22;8266;52.150;4.768;2023-10-08T02:07:01;21.50;99.90
16315;DHT22;8266;52.150;4.768;2023-10-08T02:09:29;21.50;99.90
16315;DHT22;8266;52.150;4.768;2023-10-08T02:12:00;21.50;99.90
16315;DHT22;8266;52.150;4.768;2023-10-08T02:14:28;21.40;99.90
16315;DHT22;8266;52.150;4.768;2023-10-08T02:16:57;21.50;99.90
16315;DHT22;8266;52.150;4.768;2023-10-08T02:19:28;21.40;99.90
16315;DHT22;8266;52.150;4.768;2023-10-08T02:21:56;21.40;99.90
16315;DHT22;8266;52.150;4.768;2023-10-08T02:24:24;21.40;99.90
16315;DHT22;8266;52.150;4.768;2023-10-08T02:26:51;21.40;99.90
16315;DHT22;8266;52.150;4.768;2023-10-08T02:29:24;21.40;99.90
16315;DHT22;8266;52.150;4.768;2023-10-08T02:31:52;21.40;99.90
16315;DHT22;8266;52.150;4.768;2023-10-08T02:34:19;21.40;99.90
16315;DHT22;8266;52.150;4.768;2023-10-08T02:36:47;21.40;99.90
16315;DHT22;8266;52.150;4.768;2023-10-08T02:39:14;21.40;99.90
16315;DHT22;8266;52.150;4.768;2023-10-08T02:41:47;21.40;99.90
16315;DHT22;8266;52.150;4.768;2023-10-08T02:44:15;21.40;99.90
16315;DHT22;8266;52.150;4.768;2023-10-08T02:46:45;21.40;99.90
16315;DHT22;8266;52.150;4.768;2023-10-08T02:49:13;21.40;99.90
16315;DHT22;8266;52.150;4.768;2023-10-08T02:51:45;21.40;99.90
16315;DHT22;8266;52.150;4.768;2023-10-08T02:54:12;21.30;99.90
16315;DHT22;8266;52.150;4.768;2023-10-08T02:56:44;21.30;99.90
16315;DHT22;8266;52.150;4.768;2023-10-08T02:59:11;21.30;99.90
16315;DHT22;8266;52.150;4.768;2023-10-08T03:01:39;21.30;99.90
16315;DHT22;8266;52.150;4.768;2023-10-08T03:04:08;21.30;99.90
16315;DHT22;8266;52.150;4.768;2023-10-08T03:06:45;21.30;99.90
16315;DHT22;8266;52.150;4.768;2023-10-08T03:09:16;21.20;99.90
16315;DHT22;8266;52.150;4.768;2023-10-08T03:11:47;21.20;99.90
16315;DHT22;8266;52.150;4.768;2023-10-08T03:14:14;21.20;99.90
16315;DHT22;8266;52.150;4.768;2023-10-08T03:16:48;21.20;99.90
16315;DHT22;8266;52.150;4.768;2023-10-08T03:19:17;21.10;99.90
16315;DHT22;8266;52.150;4.768;2023-10-08T03:21:46;21.20;99.90
16315;DHT22;8266;52.150;4.768;2023-10-08T03:24:17;21.20;99.90
16315;DHT22;8266;52.150;4.768;2023-10-08T03:27:03;21.10;99.90
16315;DHT22;8266;52.150;4.768;2023-10-08T03:29:37;21.10;99.90
16315;DHT22;8266;52.150;4.768;2023-10-08T03:32:08;21.10;99.90
16315;DHT22;8266;52.150;4.768;2023-10-08T03:34:43;21.10;99.90
16315;DHT22;8266;52.150;4.768;2023-10-08T03:37:12;21.10;99.90
16315;DHT22;8266;52.150;4.768;2023-10-08T03:39:46;21.10;99.90
16315;DHT22;8266;52.150;4.768;2023-10-08T03:42:26;21.00;99.90
16315;DHT22;8266;52.150;4.768;2023-10-08T03:45:00;21.00;99.90
16315;DHT22;8266;52.150;4.768;2023-10-08T03:47:36;21.00;99.90
16315;DHT22;8266;52.150;4.768;2023-10-08T03:50:07;21.00;99.90
16315;DHT22;8266;52.150;4.768;2023-10-08T03:52:35;20.90;99.90
16315;DHT22;8266;52.150;4.768;2023-10-08T03:55:05;20.90;99.90
16315;DHT22;8266;52.150;4.768;2023-10-08T03:57:39;20.90;99.90
16315;DHT22;8266;52.150;4.768;2023-10-08T04:00:14;20.90;99.90
16315;DHT22;8266;52.150;4.768;2023-10-08T04:02:44;20.90;99.90
16315;DHT22;8266;52.150;4.768;2023-10-08T04:05:21;20.80;99.90
16315;DHT22;8266;52.150;4.768;2023-10-08T04:07:53;20.80;99.90
16315;DHT22;8266;52.150;4.768;2023-10-08T04:10:43;20.80;99.90
16315;DHT22;8266;52.150;4.768;2023-10-08T04:13:27;20.80;99.90
16315;DHT22;8266;52.150;4.768;2023-10-08T04:15:56;20.70;99.90
16315;DHT22;8266;52.150;4.768;2023-10-08T04:18:23;20.60;99.90
16315;DHT22;8266;52.150;4.768;2023-10-08T04:20:51;20.50;99.90
16315;DHT22;8266;52.150;4.768;2023-10-08T04:23:30;20.40;99.90
16315;DHT22;8266;52.150;4.768;2023-10-08T04:25:57;20.30;99.90
16315;DHT22;8266;52.150;4.768;2023-10-08T04:28:24;20.20;99.90
16315;DHT22;8266;52.150;4.768;2023-10-08T04:30:57;20.10;99.90
16315;DHT22;8266;52.150;4.768;2023-10-08T04:33:27;20.00;99.90
16315;DHT22;8266;52.150;4.768;2023-10-08T04:36:00;19.90;99.90
16315;DHT22;8266;52.150;4.768;2023-10-08T04:38:28;19.80;99.90
16315;DHT22;8266;52.150;4.768;2023-10-08T04:40:55;19.70;99.90
16315;DHT22;8266;52.150;4.768;2023-10-08T04:43:27;19.60;99.90
16315;DHT22;8266;52.150;4.768;2023-10-08T04:45:56;19.60;99.90
16315;DHT22;8266;52.150;4.768;2023-10-08T04:48:24;19.50;99.90
16315;DHT22;8266;52.150;4.768;2023-10-08T04:50:52;19.40;99.90
16315;DHT22;8266;52.150;4.768;2023-10-08T04:53:27;19.40;99.90
16315;DHT22;8266;52.150;4.768;2023-10-08T04:55:59;19.40;99.90
16315;DHT22;8266;52.150;4.768;2023-10-08T04:58:31;19.30;99.90
16315;DHT22;8266;52.150;4.768;2023-10-08T05:01:02;19.30;99.90
16315;DHT22;8266;52.150;4.768;2023-10-08T05:03:44;19.20;99.90
16315;DHT22;8266;52.150;4.768;2023-10-08T05:06:34;19.20;99.90
16315;DHT22;8266;52.150;4.768;2023-10-08T05:09:27;19.20;99.90
16315;DHT22;8266;52.150;4.768;2023-10-08T05:12:11;19.20;99.90
16315;DHT22;8266;52.150;4.768;2023-10-08T05:14:56;19.20;99.90
16315;DHT22;8266;52.150;4.768;2023-10-08T05:17:44;19.10;99.90
16315;DHT22;8266;52.150;4.768;2023-10-08T05:20:24;19.10;99.90
16315;DHT22;8266;52.150;4.768;2023-10-08T05:23:07;19.10;99.90
16315;DHT22;8266;52.150;4.768;2023-10-08T05:26:08;19.00;99.90
16315;DHT22;8266;52.150;4.768;2023-10-08T05:28:36;19.00;99.90
16315;DHT22;8266;52.150;4.768;2023-10-08T05:31:14;19.00;99.90
16315;DHT22;8266;52.150;4.768;2023-10-08T05:33:57;19.00;99.90
16315;DHT22;8266;52.150;4.768;2023-10-08T05:36:40;18.90;99.90
16315;DHT22;8266;52.150;4.768;2023-10-08T05:39:16;18.90;99.90
16315;DHT22;8266;52.150;4.768;2023-10-08T05:41:56;18.90;99.90
16315;DHT22;8266;52.150;4.768;2023-10-08T05:44:39;18.90;99.90
16315;DHT22;8266;52.150;4.768;2023-10-08T05:47:08;18.90;99.90
16315;DHT22;8266;52.150;4.768;2023-10-08T05:50:05;18.90;99.90
16315;DHT22;8266;52.150;4.768;2023-10-08T05:52:49;18.80;99.90
16315;DHT22;8266;52.150;4.768;2023-10-08T05:55:30;18.80;99.90
16315;DHT22;8266;52.150;4.768;2023-10-08T05:58:03;18.80;99.90
16315;DHT22;8266;52.150;4.768;2023-10-08T06:00:50;18.80;99.90
16315;DHT22;8266;52.150;4.768;2023-10-08T06:03:34;18.70;99.90
16315;DHT22;8266;52.150;4.768;2023-10-08T06:06:25;18.70;99.90
16315;DHT22;8266;52.150;4.768;2023-10-08T06:09:04;18.70;99.90
16315;DHT22;8266;52.150;4.768;2023-10-08T06:12:00;18.70;99.90
16315;DHT22;8266;52.150;4.768;2023-10-08T06:14:38;18.70;99.90
16315;DHT22;8266;52.150;4.768;2023-10-08T06:17:33;18.60;99.90
16315;DHT22;8266;52.150;4.768;2023-10-08T06:20:26;18.60;99.90
16315;DHT22;8266;52.150;4.768;2023-10-08T06:22:53;18.60;99.90
16315;DHT22;8266;52.150;4.768;2023-10-08T06:25:27;18.50;99.90
16315;DHT22;8266;52.150;4.768;2023-10-08T06:27:56;18.50;99.90
16315;DHT22;8266;52.150;4.768;2023-10-08T06:30:25;18.40;99.90
16315;DHT22;8266;52.150;4.768;2023-10-08T06:32:55;18.40;99.90
16315;DHT22;8266;52.150;4.768;2023-10-08T06:35:22;18.40;99.90
16315;DHT22;8266;52.150;4.768;2023-10-08T06:37:53;18.40;99.90
16315;DHT22;8266;52.150;4.768;2023-10-08T06:40:25;18.30;99.90
16315;DHT22;8266;52.150;4.768;2023-10-08T06:43:08;18.30;99.90
16315;DHT22;8266;52.150;4.768;2023-10-08T06:45:49;18.30;99.90
16315;DHT22;8266;52.150;4.768;2023-10-08T06:48:19;18.20;99.90
16315;DHT22;8266;52.150;4.768;2023-10-08T06:50:48;18.20;99.90
16315;DHT22;8266;52.150;4.768;2023-10-08T06:53:16;18.20;99.90
16315;DHT22;8266;52.150;4.768;2023-10-08T06:55:44;18.20;99.90
16315;DHT22;8266;52.150;4.768;2023-10-08T06:58:13;18.20;99.90
16315;DHT22;8266;52.150;4.768;2023-10-08T07:00:42;18.20;99.90
16315;DHT22;8266;52.150;4.768;2023-10-08T07:03:16;18.20;99.90
16315;DHT22;8266;52.150;4.768;2023-10-08T07:05:45;18.10;99.90
16315;DHT22;8266;52.150;4.768;2023-10-08T07:08:21;18.10;99.90
16315;DHT22;8266;52.150;4.768;2023-10-08T07:10:49;18.20;99.90
16315;DHT22;8266;52.150;4.768;2023-10-08T07:13:16;18.10;99.90
16315;DHT22;8266;52.150;4.768;2023-10-08T07:15:43;18.10;99.90
16315;DHT22;8266;52.150;4.768;2023-10-08T07:18:13;18.10;99.90
16315;DHT22;8266;52.150;4.768;2023-10-08T07:20:46;18.10;99.90
16315;DHT22;8266;52.150;4.768;2023-10-08T07:23:18;18.10;99.90
16315;DHT22;8266;52.150;4.768;2023-10-08T07:25:51;18.10;99.90
16315;DHT22;8266;52.150;4.768;2023-10-08T07:28:19;18.10;99.90
16315;DHT22;8266;52.150;4.768;2023-10-08T07:30:46;18.20;99.90
16315;DHT22;8266;52.150;4.768;2023-10-08T07:33:15;18.10;99.90
16315;DHT22;8266;52.150;4.768;2023-10-08T07:35:48;18.20;99.90
16315;DHT22;8266;52.150;4.768;2023-10-08T07:38:29;18.20;99.90
16315;DHT22;8266;52.150;4.768;2023-10-08T07:40:56;18.20;99.90
16315;DHT22;8266;52.150;4.768;2023-10-08T07:43:23;18.30;99.90
16315;DHT22;8266;52.150;4.768;2023-10-08T07:45:51;18.30;99.90
16315;DHT22;8266;52.150;4.768;2023-10-08T07:48:20;18.40;99.90
16315;DHT22;8266;52.150;4.768;2023-10-08T07:50:50;18.40;99.90
16315;DHT22;8266;52.150;4.768;2023-10-08T07:53:16;18.40;99.90
16315;DHT22;8266;52.150;4.768;2023-10-08T07:55:47;18.40;99.90
16315;DHT22;8266;52.150;4.768;2023-10-08T07:58:15;18.40;99.90
16315;DHT22;8266;52.150;4.768;2023-10-08T08:00:43;18.50;99.90
16315;DHT22;8266;52.150;4.768;2023-10-08T08:03:18;18.50;99.90
16315;DHT22;8266;52.150;4.768;2023-10-08T08:05:46;18.50;99.90
16315;DHT22;8266;52.150;4.768;2023-10-08T08:08:15;18.50;99.90
16315;DHT22;8266;52.150;4.768;2023-10-08T08:10:44;18.50;99.90
16315;DHT22;8266;52.150;4.768;2023-10-08T08:13:11;18.50;99.90
16315;DHT22;8266;52.150;4.768;2023-10-08T08:15:46;18.50;99.90
16315;DHT22;8266;52.150;4.768;2023-10-08T08:18:16;18.60;99.90
16315;DHT22;8266;52.150;4.768;2023-10-08T08:20:48;18.60;99.90
16315;DHT22;8266;52.150;4.768;2023-10-08T08:23:17;18.60;99.90
16315;DHT22;8266;52.150;4.768;2023-10-08T08:25:44;18.60;99.90
16315;DHT22;8266;52.150;4.768;2023-10-08T08:28:22;18.60;99.90
16315;DHT22;8266;52.150;4.768;2023-10-08T08:30:51;18.60;99.90
16315;DHT22;8266;52.150;4.768;2023-10-08T08:33:21;18.60;99.90
16315;DHT22;8266;52.150;4.768;2023-10-08T08:35:58;18.70;99.90
16315;DHT22;8266;52.150;4.768;2023-10-08T08:38:28;18.70;99.90
16315;DHT22;8266;52.150;4.768;2023-10-08T08:41:04;18.70;99.90
16315;DHT22;8266;52.150;4.768;2023-10-08T08:43:34;18.70;99.90
16315;DHT22;8266;52.150;4.768;2023-10-08T08:46:03;18.70;99.90
16315;DHT22;8266;52.150;4.768;2023-10-08T08:48:34;18.70;99.90
16315;DHT22;8266;52.150;4.768;2023-10-08T08:51:01;18.70;99.90
16315;DHT22;8266;52.150;4.768;2023-10-08T08:53:30;18.70;99.90
16315;DHT22;8266;52.150;4.768;2023-10-08T08:55:58;18.70;99.90
16315;DHT22;8266;52.150;4.768;2023-10-08T08:58:25;18.70;99.90
16315;DHT22;8266;52.150;4.768;2023-10-08T09:00:53;18.70;99.90
16315;DHT22;8266;52.150;4.768;2023-10-08T09:03:21;18.80;99.90
16315;DHT22;8266;52.150;4.768;2023-10-08T09:05:56;18.80;99.90
16315;DHT22;8266;52.150;4.768;2023-10-08T09:08:26;18.80;99.90
16315;DHT22;8266;52.150;4.768;2023-10-08T09:10:57;18.80;99.90
16315;DHT22;8266;52.150;4.768;2023-10-08T09:13:27;18.90;99.90
16315;DHT22;8266;52.150;4.768;2023-10-08T09:15:57;18.90;99.90
16315;DHT22;8266;52.150;4.768;2023-10-08T09:18:29;19.00;99.90
16315;DHT22;8266;52.150;4.768;2023-10-08T09:21:07;19.10;99.90
16315;DHT22;8266;52.150;4.768;2023-10-08T09:23:39;19.10;99.90
16315;DHT22;8266;52.150;4.768;2023-10-08T09:26:10;19.20;99.90
16315;DHT22;8266;52.150;4.768;2023-10-08T09:28:40;19.20;99.90
16315;DHT22;8266;52.150;4.768;2023-10-08T09:31:10;19.30;99.90
16315;DHT22;8266;52.150;4.768;2023-10-08T09:33:38;19.30;99.90
16315;DHT22;8266;52.150;4.768;2023-10-08T09:36:06;19.40;99.90
16315;DHT22;8266;52.150;4.768;2023-10-08T09:38:36;19.40;99.90
16315;DHT22;8266;52.150;4.768;2023-10-08T09:41:03;19.40;99.90
16315;DHT22;8266;52.150;4.768;2023-10-08T09:43:35;19.50;99.90
16315;DHT22;8266;52.150;4.768;2023-10-08T09:46:11;19.50;99.90
16315;DHT22;8266;52.150;4.768;2023-10-08T09:48:41;19.50;99.90
16315;DHT22;8266;52.150;4.768;2023-10-08T09:51:10;19.60;99.90
16315;DHT22;8266;52.150;4.768;2023-10-08T09:53:52;19.60;99.90
16315;DHT22;8266;52.150;4.768;2023-10-08T09:56:24;19.60;99.90
16315;DHT22;8266;52.150;4.768;2023-10-08T09:58:57;19.70;99.90
16315;DHT22;8266;52.150;4.768;2023-10-08T10:01:25;19.70;99.90
16315;DHT22;8266;52.150;4.768;2023-10-08T10:03:52;19.70;99.90
16315;DHT22;8266;52.150;4.768;2023-10-08T10:06:31;19.70;99.90
16315;DHT22;8266;52.150;4.768;2023-10-08T10:09:05;19.70;99.90
16315;DHT22;8266;52.150;4.768;2023-10-08T10:11:38;19.70;99.90
16315;DHT22;8266;52.150;4.768;2023-10-08T10:14:06;19.70;99.90
16315;DHT22;8266;52.150;4.768;2023-10-08T10:16:36;19.70;99.90
16315;DHT22;8266;52.150;4.768;2023-10-08T10:19:05;19.70;99.90
16315;DHT22;8266;52.150;4.768;2023-10-08T10:21:33;19.70;99.90
16315;DHT22;8266;52.150;4.768;2023-10-08T10:24:00;19.70;99.90
16315;DHT22;8266;52.150;4.768;2023-10-08T10:26:29;19.70;99.90
16315;DHT22;8266;52.150;4.768;2023-10-08T10:29:22;19.80;99.90
16315;DHT22;8266;52.150;4.768;2023-10-08T10:31:53;19.80;99.90
16315;DHT22;8266;52.150;4.768;2023-10-08T10:34:22;19.80;99.90
16315;DHT22;8266;52.150;4.768;2023-10-08T10:36:51;19.80;99.90
16315;DHT22;8266;52.150;4.768;2023-10-08T10:39:23;19.80;99.90
16315;DHT22;8266;52.150;4.768;2023-10-08T10:41:55;19.90;99.90
16315;DHT22;8266;52.150;4.768;2023-10-08T10:44:24;19.90;99.90
16315;DHT22;8266;52.150;4.768;2023-10-08T10:46:51;19.90;99.90
16315;DHT22;8266;52.150;4.768;2023-10-08T10:49:38;20.00;99.90
16315;DHT22;8266;52.150;4.768;2023-10-08T10:52:19;20.00;99.90
16315;DHT22;8266;52.150;4.768;2023-10-08T10:55:00;20.10;99.90
16315;DHT22;8266;52.150;4.768;2023-10-08T10:57:44;20.20;99.90
16315;DHT22;8266;52.150;4.768;2023-10-08T11:00:21;20.20;99.90
16315;DHT22;8266;52.150;4.768;2023-10-08T11:03:03;20.20;99.90
16315;DHT22;8266;52.150;4.768;2023-10-08T11:05:43;20.30;99.90
16315;DHT22;8266;52.150;4.768;2023-10-08T11:08:15;20.30;99.90
16315;DHT22;8266;52.150;4.768;2023-10-08T11:10:44;20.30;99.90
16315;DHT22;8266;52.150;4.768;2023-10-08T11:13:17;20.30;99.90
16315;DHT22;8266;52.150;4.768;2023-10-08T11:15:50;20.30;99.90
16315;DHT22;8266;52.150;4.768;2023-10-08T11:18:20;20.40;99.90
16315;DHT22;8266;52.150;4.768;2023-10-08T11:20:48;20.40;99.90
16315;DHT22;8266;52.150;4.768;2023-10-08T11:23:35;20.30;99.90
16315;DHT22;8266;52.150;4.768;2023-10-08T11:26:04;20.30;99.90
16315;DHT22;8266;52.150;4.768;2023-10-08T11:28:31;20.30;99.90
16315;DHT22;8266;52.150;4.768;2023-10-08T11:31:02;20.40;99.90
16315;DHT22;8266;52.150;4.768;2023-10-08T11:33:37;20.40;99.90
16315;DHT22;8266;52.150;4.768;2023-10-08T11:36:05;20.40;99.90
16315;DHT22;8266;52.150;4.768;2023-10-08T11:38:42;20.40;99.90
16315;DHT22;8266;52.150;4.768;2023-10-08T11:41:14;20.40;99.90
16315;DHT22;8266;52.150;4.768;2023-10-08T11:43:48;20.40;99.90
16315;DHT22;8266;52.150;4.768;2023-10-08T11:46:21;20.50;99.90
16315;DHT22;8266;52.150;4.768;2023-10-08T11:48:54;20.50;99.90
16315;DHT22;8266;52.150;4.768;2023-10-08T11:51:24;20.60;99.90
16315;DHT22;8266;52.150;4.768;2023-10-08T11:53:51;20.60;99.90
16315;DHT22;8266;52.150;4.768;2023-10-08T11:56:21;20.60;99.90
16315;DHT22;8266;52.150;4.768;2023-10-08T11:58:51;20.70;99.90
16315;DHT22;8266;52.150;4.768;2023-10-08T12:01:22;20.70;99.90
16315;DHT22;8266;52.150;4.768;2023-10-08T12:03:50;20.70;99.90
16315;DHT22;8266;52.150;4.768;2023-10-08T12:06:20;20.70;99.90
16315;DHT22;8266;52.150;4.768;2023-10-08T12:08:50;20.80;99.90
16315;DHT22;8266;52.150;4.768;2023-10-08T12:11:19;20.80;99.90
16315;DHT22;8266;52.150;4.768;2023-10-08T12:13:49;20.80;99.90
16315;DHT22;8266;52.150;4.768;2023-10-08T12:16:16;20.80;99.90
16315;DHT22;8266;52.150;4.768;2023-10-08T12:18:50;20.90;99.90
16315;DHT22;8266;52.150;4.768;2023-10-08T12:21:24;20.90;99.90
16315;DHT22;8266;52.150;4.768;2023-10-08T12:23:51;20.90;99.90
16315;DHT22;8266;52.150;4.768;2023-10-08T12:26:20;20.90;99.90
16315;DHT22;8266;52.150;4.768;2023-10-08T12:28:47;20.90;99.90
16315;DHT22;8266;52.150;4.768;2023-10-08T12:31:18;20.90;99.90
16315;DHT22;8266;52.150;4.768;2023-10-08T12:33:49;21.00;99.90
16315;DHT22;8266;52.150;4.768;2023-10-08T12:36:19;21.00;99.90
16315;DHT22;8266;52.150;4.768;2023-10-08T12:38:49;21.00;99.90
16315;DHT22;8266;52.150;4.768;2023-10-08T12:41:24;21.00;99.90
16315;DHT22;8266;52.150;4.768;2023-10-08T12:43:52;21.00;99.90
16315;DHT22;8266;52.150;4.768;2023-10-08T12:46:20;21.00;99.90
16315;DHT22;8266;52.150;4.768;2023-10-08T12:48:51;21.10;99.90
16315;DHT22;8266;52.150;4.768;2023-10-08T12:51:20;21.10;99.90
16315;DHT22;8266;52.150;4.768;2023-10-08T12:53:49;21.10;99.90
16315;DHT22;8266;52.150;4.768;2023-10-08T12:56:24;21.00;99.90
16315;DHT22;8266;52.150;4.768;2023-10-08T12:58:58;21.00;99.90
16315;DHT22;8266;52.150;4.768;2023-10-08T13:01:25;21.00;99.90
16315;DHT22;8266;52.150;4.768;2023-10-08T13:03:56;21.00;99.90
16315;DHT22;8266;52.150;4.768;2023-10-08T13:06:27;20.90;99.90
16315;DHT22;8266;52.150;4.768;2023-10-08T13:08:55;20.90;99.90
16315;DHT22;8266;52.150;4.768;2023-10-08T13:11:24;20.90;99.90
16315;DHT22;8266;52.150;4.768;2023-10-08T13:13:52;20.90;99.90
16315;DHT22;8266;52.150;4.768;2023-10-08T13:16:22;20.90;99.90
16315;DHT22;8266;52.150;4.768;2023-10-08T13:18:50;20.90;99.90
16315;DHT22;8266;52.150;4.768;2023-10-08T13:21:19;20.90;99.90
16315;DHT22;8266;52.150;4.768;2023-10-08T13:23:47;20.90;99.90
16315;DHT22;8266;52.150;4.768;2023-10-08T13:26:15;20.90;99.90
16315;DHT22;8266;52.150;4.768;2023-10-08T13:28:44;20.90;99.90
16315;DHT22;8266;52.150;4.768;2023-10-08T13:31:11;20.90;99.90
16315;DHT22;8266;52.150;4.768;2023-10-08T13:33:38;20.90;99.90
16315;DHT22;8266;52.150;4.768;2023-10-08T13:36:08;20.90;99.90
16315;DHT22;8266;52.150;4.768;2023-10-08T13:38:37;20.90;99.90
16315;DHT22;8266;52.150;4.768;2023-10-08T13:41:06;20.90;99.90
16315;DHT22;8266;52.150;4.768;2023-10-08T13:43:41;20.80;99.90
16315;DHT22;8266;52.150;4.768;2023-10-08T13:46:11;20.80;99.90
16315;DHT22;8266;52.150;4.768;2023-10-08T13:48:40;20.80;99.90
16315;DHT22;8266;52.150;4.768;2023-10-08T13:51:08;20.80;99.90
16315;DHT22;8266;52.150;4.768;2023-10-08T13:53:41;20.80;99.90
16315;DHT22;8266;52.150;4.768;2023-10-08T13:56:11;20.80;99.90
16315;DHT22;8266;52.150;4.768;2023-10-08T13:58:39;20.80;99.90
16315;DHT22;8266;52.150;4.768;2023-10-08T14:01:12;20.90;99.90
16315;DHT22;8266;52.150;4.768;2023-10-08T14:03:46;20.90;99.90
16315;DHT22;8266;52.150;4.768;2023-10-08T14:06:14;20.90;99.90
16315;DHT22;8266;52.150;4.768;2023-10-08T14:08:44;21.00;99.90
16315;DHT22;8266;52.150;4.768;2023-10-08T14:11:18;21.00;99.90
16315;DHT22;8266;52.150;4.768;2023-10-08T14:13:45;21.00;99.90
16315;DHT22;8266;52.150;4.768;2023-10-08T14:16:13;21.10;99.90
16315;DHT22;8266;52.150;4.768;2023-10-08T14:18:43;21.10;99.90
16315;DHT22;8266;52.150;4.768;2023-10-08T14:21:16;21.20;99.90
16315;DHT22;8266;52.150;4.768;2023-10-08T14:23:45;21.20;99.90
16315;DHT22;8266;52.150;4.768;2023-10-08T14:26:13;21.20;99.90
16315;DHT22;8266;52.150;4.768;2023-10-08T14:28:41;21.30;99.90
16315;DHT22;8266;52.150;4.768;2023-10-08T14:31:10;21.30;99.90
16315;DHT22;8266;52.150;4.768;2023-10-08T14:33:41;21.30;99.90
16315;DHT22;8266;52.150;4.768;2023-10-08T14:36:21;21.40;99.90
16315;DHT22;8266;52.150;4.768;2023-10-08T14:39:07;21.40;99.90
16315;DHT22;8266;52.150;4.768;2023-10-08T14:41:52;21.40;99.90
16315;DHT22;8266;52.150;4.768;2023-10-08T14:44:36;21.50;99.90
16315;DHT22;8266;52.150;4.768;2023-10-08T14:47:04;21.50;99.90
16315;DHT22;8266;52.150;4.768;2023-10-08T14:49:31;21.50;99.90
16315;DHT22;8266;52.150;4.768;2023-10-08T14:51:58;21.50;99.90
16315;DHT22;8266;52.150;4.768;2023-10-08T14:54:26;21.50;99.90
16315;DHT22;8266;52.150;4.768;2023-10-08T14:56:54;21.60;99.90
16315;DHT22;8266;52.150;4.768;2023-10-08T14:59:23;21.60;99.90
16315;DHT22;8266;52.150;4.768;2023-10-08T15:01:53;21.60;99.90
16315;DHT22;8266;52.150;4.768;2023-10-08T15:04:20;21.60;99.90
16315;DHT22;8266;52.150;4.768;2023-10-08T15:06:47;21.60;99.90
16315;DHT22;8266;52.150;4.768;2023-10-08T15:09:15;21.60;99.90
16315;DHT22;8266;52.150;4.768;2023-10-08T15:11:48;21.70;99.90
16315;DHT22;8266;52.150;4.768;2023-10-08T15:14:17;21.70;99.90
16315;DHT22;8266;52.150;4.768;2023-10-08T15:16:45;21.70;99.90
16315;DHT22;8266;52.150;4.768;2023-10-08T15:19:18;21.70;99.90
16315;DHT22;8266;52.150;4.768;2023-10-08T15:21:45;21.70;99.90
16315;DHT22;8266;52.150;4.768;2023-10-08T15:24:17;21.70;99.90
16315;DHT22;8266;52.150;4.768;2023-10-08T15:26:44;21.70;99.90
16315;DHT22;8266;52.150;4.768;2023-10-08T15:29:14;21.60;99.90
16315;DHT22;8266;52.150;4.768;2023-10-08T15:31:41;21.60;99.90
16315;DHT22;8266;52.150;4.768;2023-10-08T15:34:10;21.60;99.90
16315;DHT22;8266;52.150;4.768;2023-10-08T15:36:38;21.60;99.90
16315;DHT22;8266;52.150;4.768;2023-10-08T15:39:05;21.50;99.90
16315;DHT22;8266;52.150;4.768;2023-10-08T15:41:36;21.50;99.90
16315;DHT22;8266;52.150;4.768;2023-10-08T15:44:03;21.50;99.90
16315;DHT22;8266;52.150;4.768;2023-10-08T15:46:32;21.50;99.90
16315;DHT22;8266;52.150;4.768;2023-10-08T15:49:01;21.40;99.90
16315;DHT22;8266;52.150;4.768;2023-10-08T15:51:28;21.40;99.90
16315;DHT22;8266;52.150;4.768;2023-10-08T15:53:57;21.40;99.90
16315;DHT22;8266;52.150;4.768;2023-10-08T15:56:25;21.40;99.90
16315;DHT22;8266;52.150;4.768;2023-10-08T15:58:52;21.40;99.90
16315;DHT22;8266;52.150;4.768;2023-10-08T16:01:19;21.30;99.90
16315;DHT22;8266;52.150;4.768;2023-10-08T16:03:49;21.30;99.90
16315;DHT22;8266;52.150;4.768;2023-10-08T16:06:16;21.30;99.90
16315;DHT22;8266;52.150;4.768;2023-10-08T16:08:43;21.30;99.90
16315;DHT22;8266;52.150;4.768;2023-10-08T16:11:10;21.30;99.90
16315;DHT22;8266;52.150;4.768;2023-10-08T16:13:37;21.20;99.90